createdAt,value
2022-11-21T00:01:24.456Z,-1.47
2022-11-21T00:03:50.686Z,-1.42
2022-11-21T00:06:17.175Z,-1.55
2022-11-21T00:08:43.583Z,-1.57
2022-11-21T00:11:09.796Z,-1.46
2022-11-21T00:13:36.014Z,-1.48
2022-11-21T00:16:05.698Z,-1.54
2022-11-21T00:18:32.668Z,-1.52
2022-11-21T00:21:02.896Z,-1.49
2022-11-21T00:23:29.125Z,-1.34
2022-11-21T00:25:55.329Z,-1.27
2022-11-21T00:28:21.534Z,-1.17
2022-11-21T00:30:47.742Z,-1.15
2022-11-21T00:33:13.966Z,-1.14
2022-11-21T00:35:40.185Z,-1.11
2022-11-21T00:38:06.732Z,-1.08
2022-11-21T00:40:32.946Z,-1.07
2022-11-21T00:42:59.168Z,-1.07
2022-11-21T00:45:25.377Z,-1.04
2022-11-21T00:47:51.596Z,-1.03
2022-11-21T00:50:17.800Z,-0.99
2022-11-21T00:52:44.016Z,-0.94
2022-11-21T00:55:10.226Z,-0.96
2022-11-21T00:57:36.441Z,-1.00
2022-11-21T01:00:02.852Z,-1.01
2022-11-21T01:02:29.067Z,-1.01
2022-11-21T01:04:55.270Z,-1.10
2022-11-21T01:07:21.492Z,-1.09
2022-11-21T01:09:47.728Z,-1.10
2022-11-21T01:12:13.926Z,-1.14
2022-11-21T01:14:40.132Z,-1.05
2022-11-21T01:17:06.343Z,-1.06
2022-11-21T01:19:32.552Z,-1.12
2022-11-21T01:21:58.756Z,-1.10
2022-11-21T01:24:25.203Z,-1.19
2022-11-21T01:26:51.659Z,-1.27
2022-11-21T01:29:17.874Z,-1.35
2022-11-21T01:31:44.068Z,-1.38
2022-11-21T01:34:10.286Z,-1.36
2022-11-21T01:36:36.490Z,-1.41
2022-11-21T01:39:03.632Z,-1.37
2022-11-21T01:41:33.964Z,-1.36
2022-11-21T01:44:00.584Z,-1.36
2022-11-21T01:46:26.793Z,-1.33
2022-11-21T01:49:31.642Z,-1.30
2022-11-21T01:52:00.584Z,-1.25
2022-11-21T01:54:46.934Z,-1.29
2022-11-21T01:57:13.083Z,-1.27
2022-11-21T01:59:44.344Z,-1.29
2022-11-21T02:02:10.673Z,-1.29
2022-11-21T02:04:36.877Z,-1.28
2022-11-21T02:07:04.026Z,-1.27
2022-11-21T02:09:30.473Z,-1.27
2022-11-21T02:11:58.644Z,-1.22
2022-11-21T02:14:24.946Z,-1.25
2022-11-21T02:16:51.336Z,-1.25
2022-11-21T02:19:23.966Z,-1.28
2022-11-21T02:21:59.315Z,-1.37
2022-11-21T02:24:45.844Z,-1.30
2022-11-21T02:27:12.050Z,-1.26
2022-11-21T02:29:39.073Z,-1.32
2022-11-21T02:32:05.520Z,-1.33
2022-11-21T02:34:32.318Z,-1.38
2022-11-21T02:36:58.515Z,-1.33
2022-11-21T02:39:29.979Z,-1.35
2022-11-21T02:41:58.550Z,-1.35
2022-11-21T02:44:29.869Z,-1.30
2022-11-21T02:46:56.245Z,-1.27
2022-11-21T02:49:34.685Z,-1.26
2022-11-21T02:52:00.905Z,-1.28
2022-11-21T02:54:27.254Z,-1.38
2022-11-21T02:56:53.677Z,-1.33
2022-11-21T02:59:19.902Z,-1.23
2022-11-21T03:01:46.100Z,-1.30
2022-11-21T03:04:12.321Z,-1.24
2022-11-21T03:06:38.532Z,-1.30
2022-11-21T03:09:04.757Z,-1.28
2022-11-21T03:11:31.036Z,-1.35
2022-11-21T03:13:57.264Z,-1.27
2022-11-21T03:16:23.467Z,-1.28
2022-11-21T03:18:49.671Z,-1.24
2022-11-21T03:21:15.866Z,-1.26
2022-11-21T03:23:42.070Z,-1.25
2022-11-21T03:26:08.286Z,-1.27
2022-11-21T03:28:34.487Z,-1.24
2022-11-21T03:31:00.708Z,-1.20
2022-11-21T03:33:26.919Z,-1.16
2022-11-21T03:35:53.151Z,-1.17
2022-11-21T03:38:19.365Z,-1.19
2022-11-21T03:40:45.580Z,-1.20
2022-11-21T03:43:11.786Z,-1.15
2022-11-21T03:45:38.003Z,-1.10
2022-11-21T03:48:04.231Z,-1.16
2022-11-21T03:50:30.460Z,-1.10
2022-11-21T03:52:56.660Z,-1.14
2022-11-21T03:55:22.884Z,-1.15
2022-11-21T03:57:49.110Z,-1.02
2022-11-21T04:00:15.702Z,-1.06
2022-11-21T04:02:41.917Z,-1.12
2022-11-21T04:05:08.276Z,-1.00
2022-11-21T04:07:34.547Z,-0.91
2022-11-21T04:10:00.801Z,-1.03
2022-11-21T04:12:27.009Z,-1.07
2022-11-21T04:14:53.287Z,-1.23
2022-11-21T04:17:19.527Z,-1.37
2022-11-21T04:19:45.752Z,-1.50
2022-11-21T04:22:11.963Z,-1.55
2022-11-21T04:24:38.169Z,-1.62
2022-11-21T04:27:04.376Z,-1.70
2022-11-21T04:29:30.596Z,-1.69
2022-11-21T04:31:56.813Z,-1.69
2022-11-21T04:34:23.038Z,-1.66
2022-11-21T04:36:49.282Z,-1.69
2022-11-21T04:39:15.525Z,-1.77
2022-11-21T04:41:41.744Z,-1.74
2022-11-21T04:44:07.947Z,-1.77
2022-11-21T04:46:34.171Z,-1.77
2022-11-21T04:49:00.386Z,-1.73
2022-11-21T04:51:26.626Z,-1.82
2022-11-21T04:53:52.840Z,-1.81
2022-11-21T04:56:19.064Z,-1.73
2022-11-21T04:58:45.291Z,-1.75
2022-11-21T05:01:11.588Z,-1.67
2022-11-21T05:03:37.881Z,-1.74
2022-11-21T05:06:04.101Z,-1.80
2022-11-21T05:08:30.313Z,-1.81
2022-11-21T05:10:56.552Z,-1.73
2022-11-21T05:13:22.839Z,-1.73
2022-11-21T05:15:49.106Z,-1.73
2022-11-21T05:18:15.313Z,-1.72
2022-11-21T05:20:41.636Z,-1.72
2022-11-21T05:23:07.853Z,-1.65
2022-11-21T05:25:34.084Z,-1.64
2022-11-21T05:28:00.334Z,-1.60
2022-11-21T05:30:26.573Z,-1.55
2022-11-21T05:32:52.814Z,-1.44
2022-11-21T05:35:19.030Z,-1.47
2022-11-21T05:37:46.450Z,-1.48
2022-11-21T05:40:13.540Z,-1.52
2022-11-21T05:42:40.642Z,-1.47
2022-11-21T05:45:07.149Z,-1.50
2022-11-21T05:47:33.362Z,-1.49
2022-11-21T05:49:59.575Z,-1.47
2022-11-21T05:52:25.771Z,-1.43
2022-11-21T05:54:52.047Z,-1.44
2022-11-21T05:57:18.257Z,-1.42
2022-11-21T05:59:44.465Z,-1.41
2022-11-21T06:02:10.656Z,-1.38
2022-11-21T06:04:36.852Z,-1.36
2022-11-21T06:07:03.106Z,-1.39
2022-11-21T06:09:29.359Z,-1.40
2022-11-21T06:11:55.559Z,-1.41
2022-11-21T06:14:21.756Z,-1.38
2022-11-21T06:16:47.978Z,-1.40
2022-11-21T06:19:14.191Z,-1.44
2022-11-21T06:21:40.396Z,-1.39
2022-11-21T06:24:06.857Z,-1.40
2022-11-21T06:26:33.064Z,-1.39
2022-11-21T06:28:59.260Z,-1.41
2022-11-21T06:31:25.894Z,-1.35
2022-11-21T06:33:55.732Z,-1.33
2022-11-21T06:36:21.944Z,-1.32
2022-11-21T06:38:48.212Z,-1.34
2022-11-21T06:41:18.132Z,-1.37
2022-11-21T06:43:44.405Z,-1.33
2022-11-21T06:46:10.618Z,-1.32
2022-11-21T06:48:36.892Z,-1.29
2022-11-21T06:51:03.671Z,-1.26
2022-11-21T06:53:29.864Z,-1.26
2022-11-21T06:55:58.282Z,-1.24
2022-11-21T06:58:24.486Z,-1.23
2022-11-21T07:00:50.767Z,-1.20
2022-11-21T07:03:16.996Z,-1.17
2022-11-21T07:05:43.200Z,-1.19
2022-11-21T07:08:13.354Z,-1.16
2022-11-21T07:10:42.519Z,-1.21
2022-11-21T07:13:18.491Z,-1.18
2022-11-21T07:15:44.733Z,-1.20
2022-11-21T07:18:11.045Z,-1.19
2022-11-21T07:20:37.376Z,-1.14
2022-11-21T07:23:03.586Z,-1.19
2022-11-21T07:25:35.240Z,-1.12
2022-11-21T07:28:02.772Z,-1.11
2022-11-21T07:30:29.172Z,-1.10
2022-11-21T07:32:58.769Z,-1.13
2022-11-21T07:35:24.973Z,-1.19
2022-11-21T07:37:51.267Z,-1.12
2022-11-21T07:40:17.573Z,-1.14
2022-11-21T07:42:43.766Z,-1.13
2022-11-21T07:45:10.262Z,-1.02
2022-11-21T07:47:36.463Z,-1.08
2022-11-21T07:50:02.656Z,-1.01
2022-11-21T07:52:28.858Z,-1.00
2022-11-21T07:54:55.053Z,-1.01
2022-11-21T07:57:21.273Z,-0.93
2022-11-21T07:59:47.464Z,-0.86
2022-11-21T08:02:19.902Z,-0.85
2022-11-21T08:04:46.353Z,-0.90
2022-11-21T08:07:13.904Z,-0.91
2022-11-21T08:09:40.177Z,-0.92
2022-11-21T08:12:06.388Z,-0.91
2022-11-21T08:14:35.548Z,-0.80
2022-11-21T08:17:01.870Z,-0.78
2022-11-21T08:19:28.220Z,-0.73
2022-11-21T08:21:54.613Z,-0.59
2022-11-21T08:24:20.818Z,-0.62
2022-11-21T08:26:47.036Z,-0.53
2022-11-21T08:29:13.449Z,-0.56
2022-11-21T08:31:39.651Z,-0.51
2022-11-21T08:34:09.122Z,-0.40
2022-11-21T08:36:39.276Z,-0.42
2022-11-21T08:39:05.496Z,-0.34
2022-11-21T08:41:31.723Z,-0.36
2022-11-21T08:43:57.932Z,-0.42
2022-11-21T08:46:24.138Z,-0.36
2022-11-21T08:48:50.350Z,-0.31
2022-11-21T08:51:16.569Z,-0.25
2022-11-21T08:53:42.771Z,-0.26
2022-11-21T08:56:08.982Z,-0.18
2022-11-21T08:58:35.196Z,-0.13
2022-11-21T09:01:01.406Z,-0.14
2022-11-21T09:03:31.010Z,-0.10
2022-11-21T09:05:57.811Z,0.07
2022-11-21T09:08:24.022Z,0.13
2022-11-21T09:10:50.260Z,0.32
2022-11-21T09:13:16.458Z,0.36
2022-11-21T09:15:42.661Z,0.40
2022-11-21T09:18:10.285Z,0.58
2022-11-21T09:20:40.318Z,0.60
2022-11-21T09:23:07.025Z,0.63
2022-11-21T09:25:33.220Z,0.74
2022-11-21T09:28:00.085Z,0.84
2022-11-21T09:30:26.366Z,0.86
2022-11-21T09:32:52.572Z,1.05
2022-11-21T09:35:18.781Z,0.83
2022-11-21T09:37:44.999Z,1.04
2022-11-21T09:40:17.386Z,1.12
2022-11-21T09:42:46.577Z,1.20
2022-11-21T09:45:13.348Z,1.11
2022-11-21T09:47:42.877Z,1.00
2022-11-21T09:50:12.074Z,1.13
2022-11-21T09:52:41.163Z,1.18
2022-11-21T09:55:13.544Z,1.32
2022-11-21T09:57:39.765Z,1.23
2022-11-21T10:00:09.687Z,1.12
2022-11-21T10:02:35.901Z,1.22
2022-11-21T10:05:02.110Z,1.19
2022-11-21T10:07:32.049Z,1.26
2022-11-21T10:10:04.363Z,1.39
2022-11-21T10:12:46.917Z,1.35
2022-11-21T10:15:28.345Z,1.36
2022-11-21T10:17:57.533Z,1.46
2022-11-21T10:20:34.428Z,1.64
2022-11-21T10:23:00.593Z,1.65
2022-11-21T10:25:28.482Z,1.68
2022-11-21T10:28:03.829Z,1.64
2022-11-21T10:30:30.036Z,1.56
2022-11-21T10:33:01.731Z,1.59
2022-11-21T10:35:30.995Z,1.56
2022-11-21T10:38:00.486Z,1.59
2022-11-21T10:40:36.913Z,1.57
2022-11-21T10:43:08.612Z,1.50
2022-11-21T10:45:34.808Z,1.49
2022-11-21T10:48:06.751Z,1.39
2022-11-21T10:50:46.476Z,1.30
2022-11-21T10:53:15.685Z,1.18
2022-11-21T10:55:47.067Z,1.29
2022-11-21T10:58:19.312Z,1.40
2022-11-21T11:00:56.474Z,1.22
2022-11-21T11:03:22.747Z,1.27
2022-11-21T11:05:55.479Z,1.42
2022-11-21T11:08:21.703Z,1.52
2022-11-21T11:11:01.887Z,1.45
2022-11-21T11:16:18.251Z,1.38
2022-11-21T11:18:50.526Z,1.32
2022-11-21T11:21:17.870Z,1.10
2022-11-21T11:23:44.277Z,0.80
2022-11-21T11:26:24.280Z,0.76
2022-11-21T11:28:50.554Z,0.89
2022-11-21T11:31:16.757Z,0.84
2022-11-21T11:33:50.162Z,0.75
2022-11-21T11:36:16.308Z,0.81
2022-11-21T11:38:43.481Z,0.90
2022-11-21T11:41:29.945Z,0.94
2022-11-21T11:44:09.319Z,0.88
2022-11-21T11:46:47.068Z,0.88
2022-11-21T11:49:26.960Z,1.02
2022-11-21T11:51:54.015Z,1.05
2022-11-21T11:54:30.092Z,1.15
2022-11-21T11:56:56.294Z,1.10
2022-11-21T11:59:23.073Z,1.07
2022-11-21T12:02:07.497Z,1.10
2022-11-21T12:04:47.823Z,1.01
2022-11-21T12:10:08.300Z,0.97
2022-11-21T12:12:38.670Z,0.98
2022-11-21T12:15:12.489Z,0.99
2022-11-21T12:17:38.688Z,1.04
2022-11-21T12:20:05.605Z,1.04
2022-11-21T12:22:31.810Z,0.93
2022-11-21T12:24:58.027Z,1.04
2022-11-21T12:27:28.199Z,1.06
2022-11-21T12:29:58.782Z,0.84
2022-11-21T12:32:54.400Z,0.97
2022-11-21T12:35:24.745Z,1.05
2022-11-21T12:37:58.047Z,1.19
2022-11-21T12:40:43.128Z,1.15
2022-11-21T12:43:27.382Z,1.10
2022-11-21T12:45:55.422Z,0.93
2022-11-21T12:48:37.099Z,1.05
2022-11-21T12:51:09.553Z,1.06
2022-11-21T12:53:41.048Z,1.15
2022-11-21T12:56:09.739Z,1.09
2022-11-21T12:58:36.835Z,1.05
2022-11-21T13:01:06.523Z,0.95
2022-11-21T13:03:39.761Z,0.92
2022-11-21T13:06:06.134Z,0.82
2022-11-21T13:08:34.632Z,0.76
2022-11-21T13:11:19.461Z,0.79
2022-11-21T13:13:47.200Z,0.81
2022-11-21T13:16:18.357Z,0.85
2022-11-21T13:18:45.950Z,0.75
2022-11-21T13:21:30.976Z,0.62
2022-11-21T13:23:57.179Z,0.78
2022-11-21T13:26:26.379Z,0.66
2022-11-21T13:29:06.902Z,0.66
2022-11-21T13:31:33.108Z,0.78
2022-11-21T13:33:59.691Z,0.86
2022-11-21T13:36:28.900Z,0.87
2022-11-21T13:38:55.068Z,0.96
2022-11-21T13:41:36.323Z,0.97
2022-11-21T13:44:21.417Z,0.85
2022-11-21T13:46:57.168Z,0.94
2022-11-21T13:49:23.365Z,0.84
2022-11-21T13:51:51.068Z,0.86
2022-11-21T13:54:26.371Z,0.71
2022-11-21T13:57:07.116Z,0.65
2022-11-21T13:59:36.307Z,0.69
2022-11-21T14:02:14.724Z,0.64
2022-11-21T14:04:48.763Z,0.52
2022-11-21T14:07:21.014Z,0.44
2022-11-21T14:09:51.116Z,0.50
2022-11-21T14:12:25.328Z,0.36
2022-11-21T14:14:54.729Z,0.37
2022-11-21T14:17:20.899Z,0.30
2022-11-21T14:19:47.106Z,0.24
2022-11-21T14:22:17.083Z,0.12
2022-11-21T14:24:43.311Z,0.19
2022-11-21T14:27:11.476Z,0.08
2022-11-21T14:29:39.758Z,-0.02
2022-11-21T14:32:06.240Z,-0.10
2022-11-21T14:34:32.618Z,-0.09
2022-11-21T14:36:59.605Z,-0.16
2022-11-21T14:39:37.183Z,-0.23
2022-11-21T14:42:05.986Z,-0.28
2022-11-21T14:44:32.520Z,-0.33
2022-11-21T14:47:09.656Z,-0.35
2022-11-21T14:49:35.905Z,-0.36
2022-11-21T14:52:10.932Z,-0.43
2022-11-21T14:55:06.378Z,-0.46
2022-11-21T14:57:39.308Z,-0.57
2022-11-21T15:00:07.524Z,-0.51
2022-11-21T15:02:33.907Z,-0.63
2022-11-21T15:05:00.792Z,-0.65
2022-11-21T15:07:31.858Z,-0.66
2022-11-21T15:12:47.949Z,-0.83
2022-11-21T15:15:23.204Z,-0.94
2022-11-21T15:18:23.885Z,-0.94
2022-11-21T15:20:40.873Z,-1.00
2022-11-21T15:23:24.337Z,-1.03
2022-11-21T15:25:50.545Z,-1.07
2022-11-21T15:28:16.761Z,-1.12
2022-11-21T15:30:42.965Z,-1.06
2022-11-21T15:33:09.136Z,-1.13
2022-11-21T15:35:38.306Z,-1.22
2022-11-21T15:38:13.404Z,-1.29
2022-11-21T15:40:44.225Z,-1.33
2022-11-21T15:43:11.901Z,-1.31
2022-11-21T15:45:38.104Z,-1.30
2022-11-21T15:48:04.328Z,-1.35
2022-11-21T15:50:30.551Z,-1.40
2022-11-21T15:52:56.758Z,-1.43
2022-11-21T15:55:25.205Z,-1.47
2022-11-21T15:57:51.432Z,-1.49
2022-11-21T16:00:17.674Z,-1.49
2022-11-21T16:02:43.897Z,-1.51
2022-11-21T16:05:13.520Z,-1.56
2022-11-21T16:07:40.106Z,-1.52
2022-11-21T16:10:10.122Z,-1.50
2022-11-21T16:12:39.660Z,-1.52
2022-11-21T16:15:06.101Z,-1.57
2022-11-21T16:17:32.317Z,-1.50
2022-11-21T16:19:58.609Z,-1.44
2022-11-21T16:22:24.889Z,-1.62
2022-11-21T16:24:51.096Z,-1.61
2022-11-21T16:27:17.303Z,-1.62
2022-11-21T16:29:43.509Z,-1.76
2022-11-21T16:32:09.704Z,-1.73
2022-11-21T16:34:35.926Z,-1.69
2022-11-21T16:37:07.125Z,-1.75
2022-11-21T16:39:34.160Z,-1.75
2022-11-21T16:42:00.681Z,-1.78
2022-11-21T16:44:26.879Z,-1.79
2022-11-21T16:46:53.090Z,-1.81
2022-11-21T16:49:19.296Z,-1.79
2022-11-21T16:51:46.266Z,-1.88
2022-11-21T16:54:12.560Z,-1.88
2022-11-21T16:56:38.786Z,-1.87
2022-11-21T16:59:05.008Z,-1.78
2022-11-21T17:01:31.318Z,-1.85
2022-11-21T17:03:57.618Z,-1.80
2022-11-21T17:06:24.514Z,-1.72
2022-11-21T17:08:50.748Z,-1.80
2022-11-21T17:11:20.652Z,-1.82
2022-11-21T17:13:47.118Z,-1.80
2022-11-21T17:16:13.550Z,-1.75
2022-11-21T17:18:39.764Z,-1.68
2022-11-21T17:21:06.344Z,-1.63
2022-11-21T17:23:32.634Z,-1.67
2022-11-21T17:26:02.622Z,-1.65
2022-11-21T17:28:28.831Z,-1.61
2022-11-21T17:30:55.047Z,-1.51
2022-11-21T17:33:21.254Z,-1.43
2022-11-21T17:35:47.478Z,-1.44
2022-11-21T17:38:13.672Z,-1.41
2022-11-21T17:40:39.952Z,-1.38
2022-11-21T17:43:06.163Z,-1.38
2022-11-21T17:45:34.289Z,-1.39
2022-11-21T17:48:00.526Z,-1.33
2022-11-21T17:50:26.745Z,-1.24
2022-11-21T17:52:52.939Z,-1.27
2022-11-21T17:55:19.193Z,-1.24
2022-11-21T17:57:45.394Z,-1.22
2022-11-21T18:00:11.841Z,-1.23
2022-11-21T18:02:38.121Z,-1.13
2022-11-21T18:05:04.544Z,-1.20
2022-11-21T18:07:30.798Z,-1.11
2022-11-21T18:10:14.281Z,-1.08
2022-11-21T18:12:43.222Z,-1.13
2022-11-21T18:15:09.632Z,-1.15
2022-11-21T18:17:35.842Z,-1.18
2022-11-21T18:20:02.064Z,-1.11
2022-11-21T18:22:29.740Z,-1.04
2022-11-21T18:24:56.023Z,-1.05
2022-11-21T18:27:22.238Z,-1.02
2022-11-21T18:29:48.453Z,-0.98
2022-11-21T18:32:14.670Z,-0.98
2022-11-21T18:34:40.874Z,-0.90
2022-11-21T18:37:07.091Z,-0.94
2022-11-21T18:39:33.567Z,-0.94
2022-11-21T18:41:59.885Z,-1.02
2022-11-21T18:44:26.100Z,-0.99
2022-11-21T18:46:52.296Z,-1.03
2022-11-21T18:49:23.433Z,-0.95
2022-11-21T18:51:49.633Z,-1.00
2022-11-21T18:54:15.846Z,-0.97
2022-11-21T18:56:42.047Z,-0.99
2022-11-21T18:59:08.251Z,-0.97
2022-11-21T19:01:35.009Z,-0.97
2022-11-21T19:04:01.351Z,-1.03
2022-11-21T19:06:28.494Z,-0.99
2022-11-21T19:08:55.037Z,-0.90
2022-11-21T19:11:21.641Z,-0.95
2022-11-21T19:13:47.918Z,-1.00
2022-11-21T19:16:14.984Z,-1.00
2022-11-21T19:18:44.212Z,-1.02
2022-11-21T19:21:12.100Z,-1.08
2022-11-21T19:23:38.435Z,-1.13
2022-11-21T19:26:05.415Z,-1.08
2022-11-21T19:28:31.681Z,-1.06
2022-11-21T19:30:57.922Z,-1.02
2022-11-21T19:33:24.397Z,-1.09
2022-11-21T19:35:50.640Z,-1.16
2022-11-21T19:38:17.113Z,-1.19
2022-11-21T19:40:43.329Z,-1.00
2022-11-21T19:43:09.533Z,-1.09
2022-11-21T19:45:35.736Z,-1.05
2022-11-21T19:48:01.930Z,-1.02
2022-11-21T19:50:28.147Z,-1.06
2022-11-21T19:52:54.366Z,-1.07
2022-11-21T19:55:20.584Z,-1.03
2022-11-21T19:57:46.794Z,-1.08
2022-11-21T20:00:13.236Z,-1.20
2022-11-21T20:02:39.443Z,-1.17
2022-11-21T20:05:05.832Z,-1.20
2022-11-21T20:07:32.375Z,-1.25
2022-11-21T20:09:58.632Z,-1.20
2022-11-21T20:12:24.850Z,-1.11
2022-11-21T20:14:51.052Z,-1.08
2022-11-21T20:17:17.269Z,-1.04
2022-11-21T20:19:50.293Z,-1.08
2022-11-21T20:22:16.871Z,-1.00
2022-11-21T20:24:46.273Z,-1.00
2022-11-21T20:27:16.530Z,-1.06
2022-11-21T20:29:42.733Z,-1.10
2022-11-21T20:32:08.946Z,-1.05
2022-11-21T20:34:35.153Z,-1.19
2022-11-21T20:37:01.401Z,-1.28
2022-11-21T20:39:27.748Z,-1.14
2022-11-21T20:41:54.118Z,-1.16
2022-11-21T20:45:11.677Z,-1.12
2022-11-21T20:47:06.749Z,-1.13
2022-11-21T20:49:33.170Z,-1.01
2022-11-21T20:54:45.643Z,-1.06
2022-11-21T20:57:15.205Z,-1.14
2022-11-21T20:59:41.811Z,-1.10
2022-11-21T21:02:08.856Z,-1.05
2022-11-21T21:04:35.113Z,-1.14
2022-11-21T21:07:01.350Z,-1.14
2022-11-21T21:09:27.791Z,-1.11
2022-11-21T21:11:54.306Z,-1.03
2022-11-21T21:14:21.245Z,-1.11
2022-11-21T21:16:47.451Z,-1.24
2022-11-21T21:19:13.656Z,-1.30
2022-11-21T21:21:39.852Z,-1.27
2022-11-21T21:24:06.496Z,-1.27
2022-11-21T21:26:38.635Z,-1.34
2022-11-21T21:29:07.926Z,-1.29
2022-11-21T21:31:34.130Z,-1.15
2022-11-21T21:34:00.353Z,-1.26
2022-11-21T21:36:26.607Z,-1.26
2022-11-21T21:38:56.791Z,-1.19
2022-11-21T21:41:23.339Z,-1.22
2022-11-21T21:43:49.827Z,-1.32
2022-11-21T21:46:16.397Z,-1.27
2022-11-21T21:48:42.866Z,-1.24
2022-11-21T21:51:13.131Z,-1.13
2022-11-21T21:53:39.396Z,-1.12
2022-11-21T21:56:05.829Z,-1.17
2022-11-21T21:58:32.449Z,-1.13
2022-11-21T22:01:02.029Z,-1.07
2022-11-21T22:03:28.242Z,-1.06
2022-11-21T22:05:54.449Z,-1.01
2022-11-21T22:08:20.653Z,-0.96
2022-11-21T22:10:46.864Z,-0.97
2022-11-21T22:13:13.089Z,-1.08
2022-11-21T22:15:39.293Z,-0.98
2022-11-21T22:18:05.496Z,-1.06
2022-11-21T22:20:31.691Z,-1.17
2022-11-21T22:23:00.557Z,-1.22
2022-11-21T22:25:27.007Z,-1.33
2022-11-21T22:27:53.213Z,-1.37
2022-11-21T22:30:19.443Z,-1.43
2022-11-21T22:32:45.651Z,-1.42
2022-11-21T22:35:11.849Z,-1.35
2022-11-21T22:37:38.054Z,-1.33
2022-11-21T22:40:04.429Z,-1.43
2022-11-21T22:42:30.640Z,-1.38
2022-11-21T22:44:56.855Z,-1.52
2022-11-21T22:47:23.055Z,-1.44
2022-11-21T22:49:49.276Z,-1.47
2022-11-21T22:52:15.525Z,-1.69
2022-11-21T22:54:41.834Z,-1.82
2022-11-21T22:57:08.041Z,-1.83
2022-11-21T22:59:34.299Z,-1.82
2022-11-21T23:02:00.544Z,-1.84
2022-11-21T23:04:26.799Z,-1.70
2022-11-21T23:06:52.993Z,-1.71
2022-11-21T23:09:19.196Z,-1.69
2022-11-21T23:11:45.388Z,-1.68
2022-11-21T23:14:11.596Z,-1.77
2022-11-21T23:16:37.799Z,-1.67
2022-11-21T23:19:04.008Z,-1.81
2022-11-21T23:21:30.203Z,-1.82
2022-11-21T23:23:56.422Z,-1.82
2022-11-21T23:26:22.616Z,-1.85
2022-11-21T23:28:48.834Z,-1.86
2022-11-21T23:31:15.044Z,-1.91
2022-11-21T23:33:41.262Z,-1.93
2022-11-21T23:36:07.455Z,-2.00
2022-11-21T23:38:33.701Z,-1.96
2022-11-21T23:40:59.897Z,-1.96
2022-11-21T23:43:26.099Z,-1.97
2022-11-21T23:45:52.432Z,-1.99
2022-11-21T23:48:18.741Z,-1.96
2022-11-21T23:50:45.386Z,-1.99
2022-11-21T23:53:11.593Z,-1.92
2022-11-21T23:55:37.795Z,-1.95
2022-11-21T23:58:04.009Z,-1.90
